Azalea Park, Florida
Current Conditions -  °F | °C
As of 4:53 AM on Saturday 22 Nov 2014 (Local Time) from KORL Reporting Station
Overcast Overcast  
Wind Chill: 21°   Ceiling: 8000
Heat Index: 21°   Visibility: 10mi
Dew Point: 16°   Wind: 8mph
Humidity: 75%   Direction: 60°ENE
Pressure: 30.23"   Gusts: NA
Location:  28.5525°N, 81.3003°W
Report Text: KORL 220953Z AUTO 06007KT 10SM OVC080 21/16 A3023 RMK AO2 SLP239 T02060161
Loading
Personal Weather Stations






























Interactive Weather Map New forecast layout! Learn more

10-Day Weather Forecast

Advertisements
Track Severe Weather on mobile